Камери на живо
METAR for:LBGO (Gorna Orechovista Ar, LO, BG)
Text:LBGO 022330Z AUTO VRB01KT 9999 NCD 20/20 Q1018
Temperature: 20.0°C ( 68°F)
Dewpoint: 20.0°C ( 68°F) [RH = 100%]
Pressure (altimeter):30.06 inches Hg (1018.0 mb)
Winds:variable direction winds at 1 MPH (1 knots; 0.5 m/s)
Visibility:6 or more sm (10+ km)
Ceiling:at least 12,000 feet AGL
Clouds:sky clear below 12,000 feet AGL

TAF for:LBGO (Gorna Orechovista Ar, LO, BG) issued at 2300 UTC 02 Jul 2022
Text:TAF LBGO 022300Z 0300/0324 VRB04KT CAVOK
Forecast period:0000 to 0800 UTC 03 July 2022
Forecast type:FROM: standard forecast or significant change
Winds:variable direction winds at 5 MPH (4 knots; 2.1 m/s)
Visibility:6 or more sm (10+ km)
Clouds:missing
Weather:NSW (no significant weather)
Text:BECMG 0308/0310 10012KT
Forecast period:0800 UTC 03 July 2022 to 0000 UTC 04 July 2022
Forecast type:BECOMING: Conditions expected to become as follows by 1000 UTC 03 July 2022
Winds:from the E (100 degrees) at 14 MPH (12 knots; 6.2 m/s)
Visibility:6 or more sm (10+ km)
Clouds:missing
Weather:NSW (no significant weather)